createdAt,value
2023-01-10T00:01:57.141Z,8.31
2023-01-10T00:04:26.545Z,8.25
2023-01-10T00:06:53.152Z,8.34
2023-01-10T00:09:19.704Z,8.51
2023-01-10T00:12:04.836Z,8.30
2023-01-10T00:14:34.950Z,8.23
2023-01-10T00:17:03.036Z,8.27
2023-01-10T00:19:29.909Z,8.40
2023-01-10T00:22:05.687Z,8.49
2023-01-10T00:24:32.230Z,8.57
2023-01-10T00:26:59.365Z,8.10
2023-01-10T00:29:28.934Z,8.32
2023-01-10T00:31:55.729Z,8.20
2023-01-10T00:34:22.729Z,8.28
2023-01-10T00:36:49.584Z,8.37
2023-01-10T00:39:18.575Z,8.39
2023-01-10T00:42:03.710Z,8.41
2023-01-10T00:44:30.902Z,8.54
2023-01-10T00:46:57.535Z,8.59
2023-01-10T00:49:24.089Z,8.48
2023-01-10T00:51:50.918Z,8.51
2023-01-10T00:54:17.541Z,8.35
2023-01-10T00:56:44.180Z,8.27
2023-01-10T00:59:10.743Z,8.57
2023-01-10T01:01:37.371Z,8.62
2023-01-10T01:04:04.240Z,8.25
2023-01-10T01:06:30.857Z,8.00
2023-01-10T01:08:57.463Z,7.93
2023-01-10T01:11:24.669Z,8.02
2023-01-10T01:13:51.738Z,8.07
2023-01-10T01:16:18.523Z,8.09
2023-01-10T01:18:45.160Z,7.99
2023-01-10T01:21:11.688Z,8.06
2023-01-10T01:23:38.281Z,7.82
2023-01-10T01:26:06.245Z,8.06
2023-01-10T01:28:33.156Z,8.02
2023-01-10T01:30:59.809Z,8.13
2023-01-10T01:33:26.523Z,8.20
2023-01-10T01:35:53.111Z,8.08
2023-01-10T01:38:19.788Z,8.11
2023-01-10T01:40:46.403Z,7.94
2023-01-10T01:43:34.402Z,8.14
2023-01-10T01:46:03.587Z,8.50
2023-01-10T01:48:33.264Z,8.67
2023-01-10T01:51:20.597Z,8.77
2023-01-10T01:53:50.862Z,8.69
2023-01-10T01:56:30.454Z,8.28
2023-01-10T01:59:00.013Z,8.20
2023-01-10T02:01:28.511Z,8.26
2023-01-10T02:04:02.973Z,8.37
2023-01-10T02:06:29.937Z,8.52
2023-01-10T02:09:10.187Z,7.91
2023-01-10T02:11:36.838Z,8.02
2023-01-10T02:14:06.333Z,8.12
2023-01-10T02:16:33.008Z,8.22
2023-01-10T02:18:59.858Z,8.32
2023-01-10T02:21:31.238Z,8.34
2023-01-10T02:24:24.063Z,8.35
2023-01-10T02:27:10.193Z,8.42
2023-01-10T02:29:49.214Z,8.40
2023-01-10T02:32:43.782Z,8.17
2023-01-10T02:35:33.763Z,8.24
2023-01-10T02:38:05.558Z,8.22
2023-01-10T02:40:55.193Z,8.38
2023-01-10T02:43:26.596Z,8.50
2023-01-10T02:46:18.207Z,8.39
2023-01-10T02:48:44.844Z,8.42
2023-01-10T02:51:18.563Z,8.28
2023-01-10T02:53:52.303Z,8.22
2023-01-10T02:56:40.873Z,8.18
2023-01-10T02:59:26.369Z,8.23
2023-01-10T03:02:13.964Z,8.42
2023-01-10T03:05:00.856Z,8.55
2023-01-10T03:07:50.867Z,8.35
2023-01-10T03:10:28.800Z,8.48
2023-01-10T03:13:07.594Z,8.49
2023-01-10T03:15:38.128Z,8.53
2023-01-10T03:18:12.844Z,8.42
2023-01-10T03:20:44.991Z,8.28
2023-01-10T03:23:13.301Z,8.21
2023-01-10T03:25:40.593Z,8.24
2023-01-10T03:28:15.973Z,8.25
2023-01-10T03:31:01.202Z,8.08
2023-01-10T03:33:30.709Z,8.11
2023-01-10T03:36:17.213Z,7.98
2023-01-10T03:38:50.432Z,7.91
2023-01-10T03:41:22.835Z,7.76
2023-01-10T03:44:15.262Z,7.90
2023-01-10T03:47:20.053Z,7.90
2023-01-10T03:49:50.269Z,8.09
2023-01-10T03:52:19.324Z,7.99
2023-01-10T03:54:47.853Z,8.02
2023-01-10T03:57:22.908Z,7.66
2023-01-10T03:59:52.870Z,7.61
2023-01-10T04:02:20.072Z,7.54
2023-01-10T04:04:46.840Z,7.45
2023-01-10T04:07:13.390Z,7.29
2023-01-10T04:09:39.899Z,7.26
2023-01-10T04:12:06.496Z,7.20
2023-01-10T04:14:33.660Z,7.45
2023-01-10T04:17:00.195Z,7.46
2023-01-10T04:19:26.730Z,7.40
2023-01-10T04:21:53.428Z,7.24
2023-01-10T04:24:19.982Z,7.62
2023-01-10T04:26:46.556Z,7.60
2023-01-10T04:29:13.339Z,8.05
2023-01-10T04:31:40.196Z,7.79
2023-01-10T04:34:10.241Z,8.05
2023-01-10T04:36:36.871Z,7.93
2023-01-10T04:39:04.556Z,8.04
2023-01-10T04:41:31.217Z,8.02
2023-01-10T04:43:57.874Z,8.22
2023-01-10T04:46:24.417Z,8.40
2023-01-10T04:48:51.354Z,8.37
2023-01-10T04:51:18.083Z,7.44
2023-01-10T04:53:44.690Z,7.37
2023-01-10T04:56:17.148Z,7.41
2023-01-10T04:58:43.840Z,7.57
2023-01-10T05:01:12.235Z,7.41
2023-01-10T05:03:39.328Z,7.51
2023-01-10T05:06:06.260Z,7.50
2023-01-10T05:08:33.988Z,7.55
2023-01-10T05:11:00.912Z,7.77
2023-01-10T05:13:27.601Z,7.84
2023-01-10T05:15:56.178Z,7.72
2023-01-10T05:18:23.015Z,7.99
2023-01-10T05:20:49.556Z,7.94
2023-01-10T05:23:16.185Z,7.80
2023-01-10T05:25:43.083Z,7.71
2023-01-10T05:28:09.845Z,7.56
2023-01-10T05:30:36.607Z,7.75
2023-01-10T05:33:06.529Z,7.61
2023-01-10T05:35:33.857Z,7.33
2023-01-10T05:38:00.486Z,7.33
2023-01-10T05:40:27.083Z,7.77
2023-01-10T05:42:53.717Z,7.45
2023-01-10T05:45:20.416Z,7.51
2023-01-10T05:47:46.956Z,7.79
2023-01-10T05:50:13.608Z,7.85
2023-01-10T05:52:40.253Z,7.70
2023-01-10T05:55:07.323Z,7.73
2023-01-10T05:57:33.891Z,7.77
2023-01-10T06:00:00.483Z,7.73
2023-01-10T06:02:27.285Z,7.67
2023-01-10T06:04:55.493Z,7.72
2023-01-10T06:07:23.464Z,7.83
2023-01-10T06:09:51.363Z,7.68
2023-01-10T06:12:21.205Z,7.77
2023-01-10T06:14:47.843Z,7.50
2023-01-10T06:17:14.354Z,7.40
2023-01-10T06:19:40.987Z,7.35
2023-01-10T06:22:07.520Z,7.66
2023-01-10T06:24:34.311Z,7.75
2023-01-10T06:27:00.962Z,7.62
2023-01-10T06:29:27.525Z,7.36
2023-01-10T06:31:54.126Z,7.48
2023-01-10T06:34:20.837Z,7.77
2023-01-10T06:36:47.471Z,8.31
2023-01-10T06:39:14.104Z,8.47
2023-01-10T06:41:40.707Z,8.17
2023-01-10T06:44:07.503Z,8.06
2023-01-10T06:46:34.116Z,8.23
2023-01-10T06:49:01.220Z,8.22
2023-01-10T06:51:27.739Z,8.21
2023-01-10T06:53:54.331Z,7.99
2023-01-10T06:56:20.843Z,8.47
2023-01-10T06:58:49.301Z,8.33
2023-01-10T07:01:18.876Z,8.09
2023-01-10T07:03:45.739Z,8.12
2023-01-10T07:06:12.679Z,8.03
2023-01-10T07:08:41.458Z,8.03
2023-01-10T07:11:09.345Z,7.90
2023-01-10T07:13:36.227Z,7.95
2023-01-10T07:16:05.074Z,8.31
2023-01-10T07:18:33.520Z,8.35
2023-01-10T07:21:00.088Z,8.53
2023-01-10T07:23:26.737Z,8.65
2023-01-10T07:25:53.336Z,8.11
2023-01-10T07:28:19.907Z,7.82
2023-01-10T07:30:46.424Z,7.76
2023-01-10T07:33:13.021Z,7.60
2023-01-10T07:35:39.550Z,7.19
2023-01-10T07:38:06.161Z,7.22
2023-01-10T07:40:32.752Z,7.61
2023-01-10T07:43:01.294Z,7.87
2023-01-10T07:45:29.019Z,7.76
2023-01-10T07:48:00.324Z,7.80
2023-01-10T07:50:28.853Z,7.84
2023-01-10T07:52:55.955Z,7.88
2023-01-10T07:55:22.527Z,7.79
2023-01-10T07:57:52.310Z,7.75
2023-01-10T08:00:19.776Z,7.53
2023-01-10T08:02:46.974Z,7.70
2023-01-10T08:05:14.386Z,7.85
2023-01-10T08:07:40.882Z,7.72
2023-01-10T08:10:08.360Z,7.60
2023-01-10T08:12:35.370Z,7.61
2023-01-10T08:15:02.139Z,7.45
2023-01-10T08:17:28.769Z,7.59
2023-01-10T08:19:56.155Z,7.65
2023-01-10T08:22:23.273Z,7.55
2023-01-10T08:24:49.997Z,7.60
2023-01-10T08:27:16.628Z,7.49
2023-01-10T08:29:43.296Z,7.51
2023-01-10T08:32:10.081Z,7.37
2023-01-10T08:34:36.980Z,7.25
2023-01-10T08:37:03.876Z,7.36
2023-01-10T08:39:30.954Z,7.40
2023-01-10T08:41:57.608Z,7.52
2023-01-10T08:44:24.203Z,7.56
2023-01-10T08:46:50.791Z,7.63
2023-01-10T08:49:17.664Z,7.38
2023-01-10T08:51:44.764Z,7.41
2023-01-10T08:54:11.476Z,7.49
2023-01-10T08:56:40.081Z,7.46
2023-01-10T08:59:07.823Z,7.55
2023-01-10T09:01:34.609Z,7.56
2023-01-10T09:04:01.351Z,7.68
2023-01-10T09:06:27.986Z,7.61
2023-01-10T09:08:54.517Z,7.57
2023-01-10T09:11:21.063Z,7.77
2023-01-10T09:13:51.306Z,7.86
2023-01-10T09:16:18.589Z,7.78
2023-01-10T09:18:45.323Z,7.93
2023-01-10T09:21:11.875Z,7.85
2023-01-10T09:23:39.964Z,7.70
2023-01-10T09:26:06.953Z,7.81
2023-01-10T09:28:33.710Z,7.90
2023-01-10T09:31:01.171Z,7.93
2023-01-10T09:33:34.953Z,7.71
2023-01-10T09:36:13.580Z,7.66
2023-01-10T09:38:40.067Z,7.56
2023-01-10T09:41:25.115Z,7.61
2023-01-10T09:44:18.923Z,8.05
2023-01-10T09:47:00.807Z,8.23
2023-01-10T09:49:50.557Z,8.17
2023-01-10T09:52:41.915Z,8.13
2023-01-10T09:55:20.576Z,8.28
2023-01-10T09:57:48.369Z,8.45
2023-01-10T10:00:22.569Z,8.36
2023-01-10T10:02:52.649Z,8.36
2023-01-10T10:05:26.571Z,8.56
2023-01-10T10:08:04.956Z,8.92
2023-01-10T10:10:39.343Z,9.46
2023-01-10T10:13:26.983Z,9.56
2023-01-10T10:16:24.261Z,9.04
2023-01-10T10:19:13.193Z,9.16
2023-01-10T10:21:45.934Z,9.01
2023-01-10T10:24:27.795Z,8.84
2023-01-10T10:26:59.320Z,8.92
2023-01-10T10:29:35.993Z,8.67
2023-01-10T10:32:43.268Z,8.45
2023-01-10T10:35:19.389Z,8.38
2023-01-10T10:37:50.298Z,8.59
2023-01-10T10:40:22.408Z,8.84
2023-01-10T10:42:52.647Z,8.56
2023-01-10T10:45:26.748Z,8.72
2023-01-10T10:48:00.188Z,8.70
2023-01-10T10:50:48.423Z,9.00
2023-01-10T10:53:15.128Z,9.13
2023-01-10T10:55:42.113Z,9.10
2023-01-10T10:58:13.343Z,9.00
2023-01-10T11:00:41.326Z,8.92
2023-01-10T11:03:23.194Z,8.97
2023-01-10T11:05:50.155Z,8.96
2023-01-10T11:08:19.664Z,9.09
2023-01-10T11:10:52.777Z,9.10
2023-01-10T11:13:34.386Z,9.17
2023-01-10T11:16:04.148Z,9.23
2023-01-10T11:18:31.376Z,9.19
2023-01-10T11:21:25.357Z,9.20
2023-01-10T11:23:56.793Z,9.23
2023-01-10T11:26:40.545Z,9.39
2023-01-10T11:29:13.740Z,9.39
2023-01-10T11:31:41.411Z,9.44
2023-01-10T11:34:37.760Z,9.44
2023-01-10T11:37:16.304Z,9.57
2023-01-10T11:39:43.432Z,9.38
2023-01-10T11:42:25.241Z,9.84
2023-01-10T11:44:51.806Z,9.76
2023-01-10T11:47:20.766Z,9.88
2023-01-10T11:49:49.624Z,10.11
2023-01-10T11:52:20.350Z,9.97
2023-01-10T11:54:47.649Z,10.01
2023-01-10T11:57:24.656Z,9.61
2023-01-10T11:59:57.761Z,9.75
2023-01-10T12:02:30.337Z,9.93
2023-01-10T12:05:00.678Z,10.14
2023-01-10T12:07:27.925Z,9.92
2023-01-10T12:10:02.689Z,9.88
2023-01-10T12:12:30.404Z,9.59
2023-01-10T12:15:23.005Z,9.24
2023-01-10T12:17:49.857Z,9.19
2023-01-10T12:20:16.578Z,9.31
2023-01-10T12:22:47.387Z,9.21
2023-01-10T12:25:19.410Z,9.03
2023-01-10T12:27:50.249Z,9.09
2023-01-10T12:30:23.411Z,9.16
2023-01-10T12:32:53.559Z,9.27
2023-01-10T12:35:39.466Z,9.50
2023-01-10T12:38:15.130Z,9.44
2023-01-10T12:40:49.583Z,9.47
2023-01-10T12:43:43.872Z,9.66
2023-01-10T12:46:43.582Z,9.65
2023-01-10T12:49:28.894Z,9.91
2023-01-10T12:52:01.844Z,10.10
2023-01-10T12:54:30.311Z,10.36
2023-01-10T12:57:05.780Z,10.58
2023-01-10T12:59:38.345Z,10.62
2023-01-10T13:02:13.279Z,10.90
2023-01-10T13:04:41.442Z,10.75
2023-01-10T13:07:12.288Z,10.42
2023-01-10T13:09:42.468Z,10.63
2023-01-10T13:12:21.188Z,10.48
2023-01-10T13:15:04.261Z,10.32
2023-01-10T13:17:33.856Z,10.41
2023-01-10T13:20:18.473Z,10.43
2023-01-10T13:22:47.936Z,10.33
2023-01-10T13:25:22.250Z,10.49
2023-01-10T13:27:56.862Z,10.92
2023-01-10T13:30:37.233Z,10.76
2023-01-10T13:33:18.364Z,10.71
2023-01-10T13:35:45.367Z,10.70
2023-01-10T13:38:53.530Z,10.65
2023-01-10T13:41:39.330Z,10.78
2023-01-10T13:44:12.128Z,10.79
2023-01-10T13:46:44.139Z,10.95
2023-01-10T13:49:10.807Z,10.74
2023-01-10T13:51:39.659Z,10.76
2023-01-10T13:54:18.371Z,10.89
2023-01-10T13:56:45.700Z,10.68
2023-01-10T13:59:45.873Z,10.70
2023-01-10T14:02:31.862Z,10.96
2023-01-10T14:05:06.719Z,10.93
2023-01-10T14:07:44.462Z,10.72
2023-01-10T14:10:27.755Z,10.56
2023-01-10T14:12:58.968Z,10.58
2023-01-10T14:15:33.997Z,10.61
2023-01-10T14:18:07.334Z,10.61
2023-01-10T14:20:36.385Z,10.78
2023-01-10T14:23:06.349Z,10.45
2023-01-10T14:25:36.200Z,10.30
2023-01-10T14:28:05.239Z,10.33
2023-01-10T14:30:35.762Z,10.29
2023-01-10T14:33:21.407Z,10.19
2023-01-10T14:35:53.042Z,10.41
2023-01-10T14:38:34.141Z,10.49
2023-01-10T14:41:05.402Z,10.50
2023-01-10T14:43:41.633Z,10.59
2023-01-10T14:46:20.418Z,10.38
2023-01-10T14:48:52.133Z,10.46
2023-01-10T14:51:26.190Z,10.56
2023-01-10T14:54:04.308Z,10.75
2023-01-10T14:56:38.917Z,10.71
2023-01-10T14:59:37.874Z,10.45
2023-01-10T15:02:23.567Z,10.45
2023-01-10T15:05:17.771Z,10.64
2023-01-10T15:07:44.363Z,11.00
2023-01-10T15:10:20.369Z,11.11
2023-01-10T15:12:47.827Z,10.70
2023-01-10T15:15:18.924Z,11.01
2023-01-10T15:17:46.210Z,11.03
2023-01-10T15:20:17.555Z,10.93
2023-01-10T15:22:47.992Z,10.96
2023-01-10T15:25:20.531Z,10.86
2023-01-10T15:27:50.109Z,10.81
2023-01-10T15:30:29.142Z,10.77
2023-01-10T15:33:02.224Z,10.79
2023-01-10T15:35:36.143Z,10.74
2023-01-10T15:38:16.147Z,11.26
2023-01-10T15:40:43.828Z,11.24
2023-01-10T15:43:29.108Z,11.26
2023-01-10T15:45:57.355Z,11.48
2023-01-10T15:48:34.693Z,11.10
2023-01-10T15:51:06.724Z,11.26
2023-01-10T15:53:55.440Z,11.30
2023-01-10T15:56:26.710Z,10.59
2023-01-10T15:58:54.677Z,10.53
2023-01-10T16:01:21.609Z,10.62
2023-01-10T16:03:53.728Z,10.63
2023-01-10T16:06:30.037Z,10.54
2023-01-10T16:08:59.768Z,10.69
2023-01-10T16:12:00.148Z,10.51
2023-01-10T16:14:26.745Z,10.31
2023-01-10T16:16:53.296Z,10.28
2023-01-10T16:19:19.861Z,10.07
2023-01-10T16:21:50.654Z,10.22
2023-01-10T16:24:23.235Z,10.18
2023-01-10T16:26:50.836Z,9.99
2023-01-10T16:29:20.505Z,9.74
2023-01-10T16:31:47.291Z,9.80
2023-01-10T16:34:13.876Z,9.64
2023-01-10T16:36:42.930Z,9.47
2023-01-10T16:39:23.211Z,9.48
2023-01-10T16:42:08.698Z,9.55
2023-01-10T16:44:35.998Z,9.35
2023-01-10T16:47:06.437Z,9.16
2023-01-10T16:49:33.626Z,8.88
2023-01-10T16:52:00.357Z,8.94
2023-01-10T16:54:28.071Z,8.86
2023-01-10T16:56:54.913Z,8.68
2023-01-10T16:59:21.528Z,8.55
2023-01-10T17:01:52.809Z,8.51
2023-01-10T17:04:23.327Z,8.67
2023-01-10T17:06:50.594Z,8.79
2023-01-10T17:09:24.321Z,8.56
2023-01-10T17:12:01.818Z,8.59
2023-01-10T17:14:34.823Z,8.76
2023-01-10T17:17:04.713Z,8.61
2023-01-10T17:19:31.682Z,8.44
2023-01-10T17:21:58.350Z,8.27
2023-01-10T17:24:25.003Z,8.05
2023-01-10T17:26:51.728Z,7.79
2023-01-10T17:29:18.332Z,7.76
2023-01-10T17:31:45.051Z,7.68
2023-01-10T17:34:11.803Z,7.65
2023-01-10T17:36:42.603Z,7.55
2023-01-10T17:39:09.414Z,7.46
2023-01-10T17:41:35.951Z,7.50
2023-01-10T17:44:02.721Z,7.48
2023-01-10T17:46:29.310Z,7.35
2023-01-10T17:48:55.918Z,7.35
2023-01-10T17:51:24.550Z,7.44
2023-01-10T17:53:54.066Z,7.45
2023-01-10T17:56:21.348Z,7.53
2023-01-10T17:58:48.128Z,7.52
2023-01-10T18:01:23.793Z,7.55
2023-01-10T18:03:52.656Z,7.55
2023-01-10T18:06:24.232Z,8.03
2023-01-10T18:08:51.827Z,7.87
2023-01-10T18:11:18.531Z,8.02
2023-01-10T18:13:45.391Z,7.99
2023-01-10T18:16:11.999Z,8.07
2023-01-10T18:18:38.989Z,8.14
2023-01-10T18:21:13.186Z,8.18
2023-01-10T18:23:40.020Z,8.13
2023-01-10T18:26:09.357Z,8.11
2023-01-10T18:28:42.704Z,8.07
2023-01-10T18:31:13.138Z,8.12
2023-01-10T18:33:40.049Z,7.95
2023-01-10T18:36:09.079Z,7.69
2023-01-10T18:38:36.614Z,7.84
2023-01-10T18:41:04.022Z,7.82
2023-01-10T18:43:31.424Z,7.98
2023-01-10T18:46:00.890Z,7.87
2023-01-10T18:48:28.070Z,7.96
2023-01-10T18:50:57.486Z,7.90
2023-01-10T18:53:24.323Z,8.04
2023-01-10T18:55:59.561Z,7.89
2023-01-10T18:58:28.432Z,7.78
2023-01-10T19:00:55.359Z,7.82
2023-01-10T19:03:22.349Z,7.79
2023-01-10T19:05:49.250Z,7.67
2023-01-10T19:08:16.066Z,7.72
2023-01-10T19:11:07.128Z,7.66
2023-01-10T19:13:31.095Z,7.70
2023-01-10T19:16:29.038Z,7.80
2023-01-10T19:18:58.649Z,7.96
2023-01-10T19:21:26.714Z,8.01
2023-01-10T19:23:55.669Z,7.77
2023-01-10T19:26:23.470Z,8.18
2023-01-10T19:28:50.362Z,8.24
2023-01-10T19:31:18.458Z,8.25
2023-01-10T19:33:47.472Z,8.31
2023-01-10T19:36:15.231Z,8.13
2023-01-10T19:38:42.092Z,8.01
2023-01-10T19:41:08.791Z,7.97
2023-01-10T19:43:35.523Z,7.93
2023-01-10T19:46:09.363Z,8.12
2023-01-10T19:48:38.092Z,8.01
2023-01-10T19:51:10.330Z,8.11
2023-01-10T19:53:39.077Z,7.92
2023-01-10T19:56:09.582Z,7.90
2023-01-10T19:58:37.859Z,8.01
2023-01-10T20:01:15.720Z,7.98
2023-01-10T20:03:42.829Z,7.85
2023-01-10T20:06:13.906Z,7.98
2023-01-10T20:08:41.346Z,7.99
2023-01-10T20:11:08.376Z,7.96
2023-01-10T20:13:37.543Z,7.92
2023-01-10T20:16:05.258Z,7.98
2023-01-10T20:18:32.286Z,8.22
2023-01-10T20:20:59.116Z,8.18
2023-01-10T20:23:25.712Z,8.29
2023-01-10T20:26:12.125Z,8.36
2023-01-10T20:28:39.849Z,8.53
2023-01-10T20:31:12.767Z,8.33
2023-01-10T20:33:39.421Z,8.33
2023-01-10T20:36:08.612Z,8.33
2023-01-10T20:38:36.456Z,8.49
2023-01-10T20:41:06.457Z,8.53
2023-01-10T20:43:34.244Z,8.58
2023-01-10T20:46:10.694Z,8.57
2023-01-10T20:48:38.248Z,8.52
2023-01-10T20:51:06.176Z,8.64
2023-01-10T20:53:32.761Z,8.64
2023-01-10T20:56:07.818Z,8.48
2023-01-10T20:58:39.512Z,8.70
2023-01-10T21:01:07.475Z,8.83
2023-01-10T21:03:34.242Z,8.71
2023-01-10T21:06:01.205Z,8.76
2023-01-10T21:08:31.878Z,8.77
2023-01-10T21:10:58.540Z,8.95
2023-01-10T21:13:26.057Z,8.91
2023-01-10T21:15:57.821Z,8.93
2023-01-10T21:18:29.759Z,8.95
2023-01-10T21:20:58.013Z,8.93
2023-01-10T21:23:26.348Z,9.01
2023-01-10T21:25:54.195Z,9.06
2023-01-10T21:28:21.049Z,8.80
2023-01-10T21:30:47.817Z,8.87
2023-01-10T21:33:14.412Z,9.12
2023-01-10T21:35:41.057Z,8.91
2023-01-10T21:38:07.576Z,8.97
2023-01-10T21:40:35.010Z,9.11
2023-01-10T21:43:02.530Z,9.00
2023-01-10T21:45:29.184Z,9.11
2023-01-10T21:47:56.348Z,9.28
2023-01-10T21:50:23.147Z,9.49
2023-01-10T21:52:49.692Z,9.45
2023-01-10T21:55:16.924Z,9.17
2023-01-10T21:57:43.501Z,9.23
2023-01-10T22:00:10.878Z,9.21
2023-01-10T22:02:40.743Z,9.21
2023-01-10T22:05:08.220Z,9.21
2023-01-10T22:07:34.806Z,9.34
2023-01-10T22:10:01.691Z,9.34
2023-01-10T22:12:30.433Z,9.41
2023-01-10T22:14:57.525Z,9.51
2023-01-10T22:17:24.308Z,9.48
2023-01-10T22:19:51.212Z,9.50
2023-01-10T22:22:18.795Z,9.51
2023-01-10T22:24:46.616Z,9.46
2023-01-10T22:27:14.346Z,9.57
2023-01-10T22:29:40.909Z,9.63
2023-01-10T22:32:07.582Z,9.62
2023-01-10T22:34:34.235Z,9.81
2023-01-10T22:37:00.806Z,10.05
2023-01-10T22:39:27.331Z,10.03
2023-01-10T22:41:53.916Z,9.87
2023-01-10T22:44:26.419Z,9.84
2023-01-10T22:46:54.462Z,10.02
2023-01-10T22:49:21.449Z,9.95
2023-01-10T22:51:48.163Z,10.05
2023-01-10T22:54:17.752Z,9.93
2023-01-10T22:56:46.077Z,9.98
2023-01-10T22:59:13.213Z,10.10
2023-01-10T23:01:40.447Z,10.15
2023-01-10T23:04:07.048Z,10.19
2023-01-10T23:06:33.690Z,10.30
2023-01-10T23:09:00.430Z,10.32
2023-01-10T23:11:27.139Z,10.36
2023-01-10T23:13:53.722Z,10.14
2023-01-10T23:16:28.151Z,10.06
2023-01-10T23:18:56.692Z,9.96
2023-01-10T23:21:24.148Z,9.89
2023-01-10T23:23:51.271Z,10.11
2023-01-10T23:26:18.275Z,10.47
2023-01-10T23:28:50.529Z,10.44
2023-01-10T23:31:20.407Z,10.55
2023-01-10T23:33:47.776Z,10.59
2023-01-10T23:36:15.091Z,10.43
2023-01-10T23:38:41.668Z,10.37
2023-01-10T23:41:09.083Z,10.48
2023-01-10T23:43:35.691Z,10.40
2023-01-10T23:46:02.493Z,10.44
2023-01-10T23:48:29.555Z,10.51
2023-01-10T23:50:56.337Z,10.59
2023-01-10T23:53:23.261Z,10.63
2023-01-10T23:55:49.880Z,10.73
2023-01-10T23:58:16.875Z,11.04
